Time;durP1;ratioP1;P1;durP2;ratioP2;P2;SDS_P1;SDS_P2;PMS_P1;PMS_P2;Temp;Humidity;BMP_temperature;BMP_pressure;BME280_temperature;BME280_humidity;BME280_pressure;Samples;Min_cycle;Max_cycle;Signal;HPM_P1;HPM_P2
2023/05/13 00:00:00;;;;;;;5.77;3.90;;;;;;;7.97;100.00;96835.91;10410562;28;20197;-66
2023/05/13 00:05:00;;;;;;;4.23;3.83;;;;;;;7.77;100.00;96835.06;10410403;28;20634;-65
2023/05/13 00:10:01;;;;;;;7.23;4.60;;;;;;;7.80;100.00;96832.19;10410322;28;20671;-65
2023/05/13 00:15:01;;;;;;;6.90;4.00;;;;;;;7.80;100.00;96816.53;10410349;28;20725;-65
2023/05/13 00:20:02;;;;;;;6.67;4.40;;;;;;;7.78;100.00;96821.03;10412573;28;20193;-65
2023/05/13 00:25:03;;;;;;;5.47;3.93;;;;;;;7.85;100.00;96816.94;10416636;28;20570;-66
2023/05/13 00:30:04;;;;;;;5.57;4.60;;;;;;;7.77;100.00;96822.84;10417504;28;20193;-66
2023/05/13 00:35:05;;;;;;;7.33;4.30;;;;;;;7.71;100.00;96826.00;10417355;28;20205;-65
2023/05/13 00:40:09;;;;;;;4.30;3.83;;;;;;;7.49;100.00;96822.66;10417146;28;20238;-65
2023/05/13 00:45:11;;;;;;;6.13;4.47;;;;;;;7.39;100.00;96831.44;10415341;28;20236;-65
2023/05/13 00:50:12;;;;;;;7.80;4.07;;;;;;;7.19;100.00;96823.56;10415550;28;20185;-65
2023/05/13 00:55:12;;;;;;;6.50;4.40;;;;;;;7.08;100.00;96832.28;10416612;28;20201;-65
2023/05/13 01:00:13;;;;;;;7.80;4.67;;;;;;;6.99;100.00;96825.28;10414956;28;20188;-66
2023/05/13 01:05:28;;;;;;;7.13;4.53;;;;;;;6.89;100.00;96840.03;10416126;28;20220;-66
2023/05/13 01:10:34;;;;;;;6.83;4.80;;;;;;;6.82;100.00;96836.31;10414767;28;20266;-67
2023/05/13 01:15:39;;;;;;;5.70;4.87;;;;;;;6.71;100.00;96842.41;10415747;28;20765;-66
2023/05/13 01:20:41;;;;;;;5.83;4.87;;;;;;;6.69;100.00;96849.50;10414014;28;20193;-66
2023/05/13 01:25:42;;;;;;;5.70;4.53;;;;;;;6.68;100.00;96840.06;10414014;28;20212;-66
2023/05/13 01:30:44;;;;;;;6.57;4.50;;;;;;;6.54;100.00;96849.00;10413207;28;20251;-65
2023/05/13 01:35:45;;;;;;;6.83;4.83;;;;;;;6.40;100.00;96853.59;10414943;28;20211;-66
2023/05/13 01:40:47;;;;;;;7.67;5.10;;;;;;;6.33;100.00;96862.03;10397003;28;20231;-66
2023/05/13 01:45:47;;;;;;;8.70;5.80;;;;;;;6.22;100.00;96863.75;10412653;28;20240;-65
2023/05/13 01:50:48;;;;;;;7.30;4.80;;;;;;;6.22;100.00;96868.13;10412992;28;20276;-66
2023/05/13 01:55:49;;;;;;;7.40;5.17;;;;;;;6.17;100.00;96867.66;10414154;28;20637;-66
2023/05/13 02:00:50;;;;;;;8.17;5.00;;;;;;;6.12;100.00;96880.22;10413887;28;20185;-66
2023/05/13 02:05:51;;;;;;;6.00;5.30;;;;;;;6.08;100.00;96874.47;10412433;28;20262;-64
2023/05/13 02:10:58;;;;;;;7.83;5.23;;;;;;;6.02;100.00;96878.38;10412246;28;20189;-66
2023/05/13 02:15:58;;;;;;;6.53;5.60;;;;;;;6.01;100.00;96878.50;10411903;28;20208;-67
2023/05/13 02:20:59;;;;;;;5.40;4.90;;;;;;;6.01;100.00;96884.50;10412900;28;20227;-66
2023/05/13 02:25:59;;;;;;;9.77;5.47;;;;;;;5.90;100.00;96879.31;10411435;28;20215;-66
2023/05/13 02:31:02;;;;;;;7.93;5.30;;;;;;;5.84;100.00;96878.03;10411025;28;20213;-66
2023/05/13 02:36:03;;;;;;;6.63;5.17;;;;;;;5.64;100.00;96884.81;10410753;28;20224;-66
2023/05/13 02:41:03;;;;;;;11.97;5.67;;;;;;;5.48;100.00;96889.56;10410568;28;20307;-66
2023/05/13 02:46:04;;;;;;;11.37;5.93;;;;;;;5.37;100.00;96890.41;10410969;28;20232;-66
2023/05/13 02:51:06;;;;;;;7.47;5.70;;;;;;;5.35;100.00;96895.72;10385561;28;20695;-67
2023/05/13 02:56:07;;;;;;;7.17;5.63;;;;;;;5.37;100.00;96903.41;10386482;28;20299;-66
2023/05/13 03:01:08;;;;;;;6.70;5.50;;;;;;;5.30;100.00;96902.25;10369799;28;20217;-66
2023/05/13 03:06:10;;;;;;;6.73;5.70;;;;;;;5.33;100.00;96896.81;10410374;28;20212;-66
2023/05/13 03:11:10;;;;;;;8.50;5.03;;;;;;;5.32;100.00;96898.56;10411492;28;20184;-66
2023/05/13 03:16:12;;;;;;;8.47;5.40;;;;;;;5.23;100.00;96898.47;10410371;28;20240;-67
2023/05/13 03:21:12;;;;;;;7.77;5.83;;;;;;;5.26;100.00;96893.03;10409733;28;20252;-67
2023/05/13 03:26:13;;;;;;;6.53;5.50;;;;;;;5.25;100.00;96899.16;10410760;28;20235;-66
2023/05/13 03:31:13;;;;;;;6.20;5.50;;;;;;;5.25;100.00;96889.59;10409725;28;20326;-66
2023/05/13 03:36:14;;;;;;;8.53;5.40;;;;;;;5.22;100.00;96897.63;10410758;28;20219;-66
2023/05/13 03:41:16;;;;;;;6.30;5.57;;;;;;;5.18;100.00;96891.03;10410527;28;20698;-66
2023/05/13 03:46:17;;;;;;;7.00;6.03;;;;;;;5.08;100.00;96893.47;10409332;28;20270;-66
2023/05/13 03:51:17;;;;;;;7.73;5.40;;;;;;;5.10;100.00;96891.63;10409012;28;20208;-65
2023/05/13 03:56:18;;;;;;;7.20;6.00;;;;;;;5.04;100.00;96893.84;10414278;28;20698;-66
2023/05/13 04:01:20;;;;;;;5.53;4.87;;;;;;;5.12;100.00;96894.91;10416851;28;20223;-67
2023/05/13 04:06:21;;;;;;;8.27;5.43;;;;;;;5.14;100.00;96894.78;10417176;28;20204;-66
2023/05/13 04:11:21;;;;;;;6.00;5.30;;;;;;;5.18;100.00;96891.84;10416969;28;20181;-66
2023/05/13 04:16:22;;;;;;;6.67;5.60;;;;;;;5.28;100.00;96898.91;10418108;28;20330;-67
2023/05/13 04:21:22;;;;;;;7.20;5.60;;;;;;;5.33;100.00;96889.00;10418067;28;20216;-67
2023/05/13 04:26:23;;;;;;;7.07;5.80;;;;;;;5.40;100.00;96891.94;10417688;28;20223;-66
2023/05/13 04:31:23;;;;;;;7.23;5.70;;;;;;;5.58;100.00;96895.72;10416445;28;20176;-66
2023/05/13 04:36:24;;;;;;;8.37;5.60;;;;;;;5.75;100.00;96893.56;10416125;28;20212;-67
2023/05/13 04:41:26;;;;;;;6.80;5.10;;;;;;;5.92;100.00;96907.81;10415698;28;20223;-67
2023/05/13 04:46:26;;;;;;;16.70;5.87;;;;;;;6.15;100.00;96895.59;10416710;28;20625;-67
2023/05/13 04:51:28;;;;;;;9.63;5.40;;;;;;;6.43;100.00;96908.00;10416625;28;20172;-67
2023/05/13 04:56:28;;;;;;;6.97;5.83;;;;;;;6.57;100.00;96903.41;10416747;28;20274;-67
2023/05/13 05:01:29;;;;;;;6.60;4.90;;;;;;;6.71;100.00;96899.69;10414834;28;20813;-67
2023/05/13 05:06:30;;;;;;;7.03;4.73;;;;;;;6.89;100.00;96905.13;10415192;28;20239;-67
2023/05/13 05:11:30;;;;;;;7.17;4.70;;;;;;;6.92;100.00;96908.31;10414834;28;20188;-66
2023/05/13 05:16:31;;;;;;;7.23;5.47;;;;;;;6.91;100.00;96905.84;10414297;28;20232;-66
2023/05/13 05:21:32;;;;;;;8.00;5.37;;;;;;;6.97;100.00;96907.94;10414525;28;20717;-66
2023/05/13 05:26:33;;;;;;;7.30;5.50;;;;;;;7.12;100.00;96913.59;10415134;28;20205;-67
2023/05/13 05:31:35;;;;;;;7.23;5.70;;;;;;;7.59;100.00;96919.13;10413996;28;20572;-67
2023/05/13 05:36:36;;;;;;;6.30;5.40;;;;;;;8.09;100.00;96922.69;10413756;28;20220;-66
2023/05/13 05:41:36;;;;;;;5.13;4.63;;;;;;;8.67;100.00;96916.69;10413777;28;20220;-67
2023/05/13 05:46:37;;;;;;;4.20;3.80;;;;;;;8.77;100.00;96909.63;10448991;23;20240;-66
2023/05/13 05:51:37;;;;;;;5.50;3.90;;;;;;;9.27;100.00;96901.53;10454484;28;20184;-67
2023/05/13 05:56:39;;;;;;;4.77;4.00;;;;;;;9.69;100.00;96896.78;10402528;28;20209;-67
2023/05/13 06:01:40;;;;;;;4.73;3.83;;;;;;;10.55;100.00;96883.25;10413784;28;20318;-66
2023/05/13 06:06:40;;;;;;;4.93;3.25;;;;;;;11.53;100.00;96867.25;10412421;28;20753;-66
2023/05/13 06:11:41;;;;;;;4.53;3.30;;;;;;;12.51;100.00;96849.19;10396028;28;20191;-66
2023/05/13 06:16:43;;;;;;;3.25;2.90;;;;;;;12.63;100.00;96850.50;10411844;28;20204;-67
2023/05/13 06:21:43;;;;;;;4.55;3.03;;;;;;;14.65;92.07;96821.88;10411944;28;20741;-66
2023/05/13 06:26:44;;;;;;;3.15;2.55;;;;;;;15.15;81.39;96771.06;10412851;28;20712;-65
2023/05/13 06:31:47;;;;;;;3.85;2.30;;;;;;;16.34;73.06;96740.78;10412857;28;20187;-66
2023/05/13 06:36:48;;;;;;;3.25;2.00;;;;;;;16.71;68.61;96720.25;10412982;28;20211;-66
2023/05/13 06:41:48;;;;;;;1.70;1.60;;;;;;;17.55;61.04;96646.03;10411117;28;20698;-66
2023/05/13 06:46:50;;;;;;;2.03;1.83;;;;;;;16.71;60.88;96643.53;10411043;28;20248;-66
2023/05/13 06:51:51;;;;;;;3.03;1.88;;;;;;;16.72;63.42;96699.91;10411981;28;20219;-66
2023/05/13 06:56:52;;;;;;;4.35;1.90;;;;;;;15.92;60.75;96642.06;10412031;28;20223;-67
2023/05/13 07:01:52;;;;;;;2.00;1.90;;;;;;;15.96;61.43;96658.34;10411568;28;20220;-66
2023/05/13 07:06:53;;;;;;;2.45;1.90;;;;;;;15.99;61.83;96671.19;10411466;28;20251;-67
2023/05/13 07:11:53;;;;;;;4.20;2.70;;;;;;;15.37;61.31;96654.16;10411539;28;20204;-66
2023/05/13 07:16:54;;;;;;;2.95;2.03;;;;;;;16.14;61.43;96679.84;10411181;28;20291;-66
2023/05/13 07:21:54;;;;;;;3.70;2.70;;;;;;;15.55;60.44;96638.69;10411098;28;20225;-66
2023/05/13 07:26:54;;;;;;;4.88;2.90;;;;;;;16.35;59.16;96649.84;10410909;28;20208;-66
2023/05/13 07:31:55;;;;;;;6.57;3.00;;;;;;;17.26;57.63;96650.69;10421831;28;20196;-66
2023/05/13 07:36:55;;;;;;;6.10;2.38;;;;;;;17.02;57.55;96641.44;10424476;28;20239;-66
2023/05/13 07:41:55;;;;;;;2.97;2.40;;;;;;;17.64;57.28;96652.75;10424213;28;20641;-66
2023/05/13 07:46:56;;;;;;;6.40;3.53;;;;;;;16.04;57.95;96637.06;10424156;28;20609;-67
2023/05/13 07:51:56;;;;;;;4.38;3.10;;;;;;;17.07;58.99;96697.25;10424283;28;20617;-67
2023/05/13 07:56:57;;;;;;;4.00;2.85;;;;;;;15.43;61.89;96712.28;10406621;28;20932;-67
2023/05/13 08:01:57;;;;;;;3.40;2.70;;;;;;;15.69;60.37;96687.94;10423946;28;20278;-66
2023/05/13 08:06:57;;;;;;;3.38;2.33;;;;;;;16.96;58.12;96666.88;10424114;28;20209;-66
2023/05/13 08:11:58;;;;;;;4.90;3.20;;;;;;;17.34;55.31;96625.84;10423903;28;20192;-66
2023/05/13 08:16:58;;;;;;;3.47;2.85;;;;;;;17.09;57.52;96655.50;10423865;28;20227;-67
2023/05/13 08:21:58;;;;;;;3.65;3.10;;;;;;;16.01;62.00;96714.88;10423477;28;20303;-67
2023/05/13 08:26:59;;;;;;;4.25;3.30;;;;;;;16.60;59.92;96702.31;10423623;28;20249;-67
2023/05/13 08:31:59;;;;;;;3.97;3.35;;;;;;;17.51;60.65;96735.69;10423590;28;20185;-67
2023/05/13 08:36:59;;;;;;;7.00;3.20;;;;;;;18.72;55.16;96641.03;10423447;28;20349;-66
2023/05/13 08:42:02;;;;;;;4.68;2.67;;;;;;;19.53;54.88;96671.47;10419952;28;20278;-66
2023/05/13 08:47:12;;;;;;;4.43;3.17;;;;;;;19.31;57.22;96715.34;10416383;28;20240;-66
2023/05/13 08:52:12;;;;;;;3.72;2.75;;;;;;;19.98;54.34;96662.59;10416800;28;20280;-66
2023/05/13 08:57:13;;;;;;;5.05;2.95;;;;;;;19.72;53.61;96652.94;10416444;28;20208;-67
2023/05/13 09:02:13;;;;;;;4.82;2.63;;;;;;;19.05;53.76;96645.38;10416199;28;20316;-67
2023/05/13 09:07:13;;;;;;;4.38;3.40;;;;;;;18.58;54.59;96642.91;10415991;28;20216;-65
2023/05/13 09:12:49;;;;;;;3.50;3.03;;;;;;;18.47;58.10;96731.09;10415837;28;20220;-66
2023/05/13 09:17:51;;;;;;;8.40;3.70;;;;;;;18.89;55.22;96694.47;10415443;28;20227;-66
2023/05/13 09:22:59;;;;;;;8.98;3.83;;;;;;;16.41;57.30;96662.28;10415482;28;20243;-67
2023/05/13 09:28:03;;;;;;;8.85;3.50;;;;;;;18.34;54.84;96692.13;10415064;28;20196;-66
2023/05/13 09:33:08;;;;;;;6.72;3.67;;;;;;;17.22;57.97;96720.94;10415025;28;20204;-66
2023/05/13 09:38:37;;;;;;;9.50;3.50;;;;;;;17.35;55.38;96664.53;10415076;28;20701;-67
2023/05/13 09:43:38;;;;;;;4.90;3.08;;;;;;;17.25;57.33;96702.00;10414358;28;20283;-66
2023/05/13 09:48:41;;;;;;;7.32;3.13;;;;;;;17.06;56.04;96669.97;10414755;28;20219;-66
2023/05/13 09:53:42;;;;;;;3.40;3.10;;;;;;;16.55;59.82;96739.91;10413511;28;20580;-67
2023/05/13 09:58:50;;;;;;;6.40;3.08;;;;;;;16.20;57.24;96676.41;10396704;28;20198;-67
2023/05/13 10:03:50;;;;;;;5.45;3.00;;;;;;;16.56;61.08;96759.22;10414037;28;20227;-66
2023/05/13 10:08:51;;;;;;;5.78;2.92;;;;;;;17.58;58.10;96728.56;10413787;28;20196;-67
2023/05/13 10:13:57;;;;;;;3.53;2.67;;;;;;;16.54;57.77;96700.44;10413535;28;20636;-67
2023/05/13 10:18:58;;;;;;;3.60;2.80;;;;;;;16.72;57.07;96694.59;10413596;28;20189;-66
2023/05/13 10:24:00;;;;;;;3.25;2.60;;;;;;;17.34;56.84;96714.03;10412885;28;20232;-67
2023/05/13 10:29:01;;;;;;;3.90;2.72;;;;;;;17.19;56.53;96694.84;10412982;28;20670;-67
2023/05/13 10:34:02;;;;;;;4.32;2.60;;;;;;;15.96;60.16;96746.34;10412742;28;20200;-67
2023/05/13 10:39:26;;;;;;;3.40;3.03;;;;;;;15.13;61.82;96754.59;10412849;28;20215;-66
2023/05/13 10:44:27;;;;;;;7.05;2.83;;;;;;;15.78;60.01;96727.50;10394755;28;20602;-67
2023/05/13 10:49:34;;;;;;;2.50;2.30;;;;;;;15.53;62.28;96791.22;10413080;28;20189;-66
2023/05/13 10:54:37;;;;;;;5.45;2.80;;;;;;;15.27;61.17;96763.50;10412322;28;20712;-66
2023/05/13 11:00:11;;;;;;;3.78;2.50;;;;;;;15.33;60.84;96756.66;10412103;28;20189;-66
2023/05/13 11:05:20;;;;;;;2.50;2.30;;;;;;;14.82;62.85;96796.16;10430027;28;20232;-67
2023/05/13 11:10:27;;;;;;;3.40;2.65;;;;;;;14.86;63.14;96800.09;10432061;28;20612;-65
2023/05/13 11:15:51;;;;;;;3.78;2.45;;;;;;;14.95;64.37;96834.09;10404627;28;20216;-66
2023/05/13 11:20:52;;;;;;;3.10;2.72;;;;;;;15.27;62.13;96797.81;10370479;28;20205;-65
2023/05/13 11:26:13;;;;;;;2.75;2.50;;;;;;;15.64;64.30;96843.53;10370345;28;20229;-65
2023/05/13 11:31:15;;;;;;;4.95;2.58;;;;;;;15.45;62.72;96807.97;10370463;28;20618;-66
2023/05/13 11:36:15;;;;;;;4.28;2.63;;;;;;;16.48;63.54;96831.59;10370283;28;20205;-66
2023/05/13 11:41:15;;;;;;;5.80;2.35;;;;;;;14.65;63.91;96806.06;10370048;28;20201;-67
2023/05/13 11:46:21;;;;;;;2.85;2.03;;;;;;;14.16;65.44;96839.72;10408391;23;20255;-66
2023/05/13 11:51:22;;;;;;;4.03;2.05;;;;;;;14.11;69.04;96893.94;10410346;28;20275;-67
2023/05/13 11:56:25;;;;;;;1.80;1.70;;;;;;;13.78;68.70;96908.09;10410542;28;20333;-65
2023/05/13 12:01:26;;;;;;;1.98;1.85;;;;;;;13.56;68.47;96884.16;10410680;28;20291;-66
2023/05/13 12:06:27;;;;;;;2.65;2.40;;;;;;;13.72;69.10;96895.59;10410611;28;20777;-66
2023/05/13 12:11:27;;;;;;;2.78;2.33;;;;;;;13.97;70.90;96929.75;10410451;28;20212;-67
2023/05/13 12:16:28;;;;;;;5.85;2.42;;;;;;;13.60;70.88;96923.28;10413988;28;20307;-67
2023/05/13 12:21:33;;;;;;;6.90;2.90;;;;;;;13.08;74.01;96954.31;10400233;28;20330;-66
2023/05/13 12:26:33;;;;;;;4.18;3.38;;;;;;;12.89;76.71;96971.25;10400302;28;20733;-67
2023/05/13 12:31:33;;;;;;;4.38;3.03;;;;;;;12.81;78.68;96972.06;10417638;28;20189;-66
2023/05/13 12:36:37;;;;;;;4.20;3.17;;;;;;;12.89;79.40;96958.09;10417478;28;20212;-66
2023/05/13 12:41:39;;;;;;;4.60;3.70;;;;;;;12.70;81.43;96964.53;10417386;28;20227;-66
2023/05/13 12:46:50;;;;;;;4.60;3.28;;;;;;;13.43;78.39;96930.44;10416677;28;20287;-65
2023/05/13 12:51:50;;;;;;;7.97;3.50;;;;;;;13.73;74.62;96897.25;10416835;28;20211;-66
2023/05/13 12:56:51;;;;;;;3.00;2.78;;;;;;;14.20;72.97;96888.44;10416841;28;20246;-67
2023/05/13 13:01:51;;;;;;;4.22;3.00;;;;;;;14.03;72.42;96882.44;10416243;28;20595;-66
2023/05/13 13:06:51;;;;;;;4.35;2.60;;;;;;;13.66;71.09;96867.34;10416580;28;20208;-66
2023/05/13 13:11:52;;;;;;;2.45;2.25;;;;;;;13.91;69.72;96853.03;10415951;28;20319;-67
2023/05/13 13:16:52;;;;;;;1.98;1.77;;;;;;;13.86;69.23;96854.59;10415944;28;20227;-66
2023/05/13 13:21:52;;;;;;;2.60;2.05;;;;;;;14.56;68.09;96848.31;10415507;28;20228;-66
2023/05/13 13:26:53;;;;;;;2.38;2.17;;;;;;;14.38;68.19;96848.63;10414420;28;20733;-65
2023/05/13 13:31:53;;;;;;;6.07;2.72;;;;;;;15.02;65.54;96833.38;10415402;28;20659;-67
2023/05/13 13:36:54;;;;;;;2.55;2.28;;;;;;;15.34;69.29;96895.53;10414787;28;20709;-67
2023/05/13 13:41:54;;;;;;;2.92;2.08;;;;;;;15.73;65.20;96836.31;10415014;28;20224;-68
2023/05/13 13:46:54;;;;;;;1.83;1.65;;;;;;;14.22;66.78;96835.56;10414351;28;20332;-67
2023/05/13 13:51:55;;;;;;;3.70;2.15;;;;;;;13.89;70.11;96885.84;10414759;28;20188;-68
2023/05/13 13:56:55;;;;;;;2.30;2.10;;;;;;;14.61;68.30;96853.88;10414426;28;20224;-67
2023/05/13 14:01:55;;;;;;;4.80;2.30;;;;;;;14.08;69.88;96869.56;10413784;28;20216;-67
2023/05/13 14:06:56;;;;;;;2.90;2.30;;;;;;;13.87;71.29;96877.28;10414063;28;20223;-67
2023/05/13 14:11:56;;;;;;;4.95;2.35;;;;;;;14.87;72.13;96896.66;10413545;28;20270;-67
2023/05/13 14:16:57;;;;;;;4.45;2.38;;;;;;;15.01;68.73;96856.31;10413447;28;20213;-67
2023/05/13 14:21:58;;;;;;;2.63;2.42;;;;;;;14.81;68.87;96856.03;10395408;28;20319;-67
2023/05/13 14:26:58;;;;;;;3.72;2.30;;;;;;;14.54;69.70;96858.19;10413166;28;20240;-67
2023/05/13 14:32:00;;;;;;;2.90;2.53;;;;;;;14.91;66.91;96824.91;10412952;28;20666;-67
2023/05/13 14:37:00;;;;;;;4.65;2.50;;;;;;;13.91;69.82;96842.50;10412695;28;20657;-66
2023/05/13 14:42:01;;;;;;;2.95;2.40;;;;;;;14.12;71.98;96885.88;10412561;28;20224;-67
2023/05/13 14:47:02;;;;;;;2.38;2.15;;;;;;;14.81;71.34;96874.50;10412522;28;20232;-67
2023/05/13 14:52:02;;;;;;;3.50;2.65;;;;;;;15.10;68.41;96846.47;10412388;28;20242;-66
2023/05/13 14:57:04;;;;;;;4.78;2.22;;;;;;;15.33;68.24;96847.22;10412075;28;20240;-66
2023/05/13 15:02:05;;;;;;;2.78;2.28;;;;;;;15.26;67.21;96829.66;10411878;28;20309;-66
2023/05/13 15:07:06;;;;;;;2.50;2.30;;;;;;;15.44;69.73;96874.16;10411806;28;20299;-67
2023/05/13 15:12:06;;;;;;;3.75;2.00;;;;;;;14.99;69.46;96860.94;10393950;28;20203;-66
2023/05/13 15:17:10;;;;;;;6.13;2.40;;;;;;;14.60;68.96;96846.97;10411169;28;20220;-66
2023/05/13 15:22:11;;;;;;;4.35;2.50;;;;;;;15.09;71.43;96884.44;10411122;28;20563;-67
2023/05/13 15:27:11;;;;;;;2.95;2.47;;;;;;;15.31;68.84;96845.75;10411103;28;20220;-66
2023/05/13 15:32:12;;;;;;;4.72;2.22;;;;;;;15.10;66.97;96814.81;10411065;28;20666;-67
2023/05/13 15:37:12;;;;;;;3.03;2.40;;;;;;;14.66;69.69;96848.06;10410979;28;20644;-67
2023/05/13 15:42:12;;;;;;;4.65;2.90;;;;;;;14.91;67.83;96827.53;10410716;28;20600;-67
2023/05/13 15:47:13;;;;;;;3.35;2.50;;;;;;;14.28;69.58;96848.03;10410612;28;20302;-65
2023/05/13 15:52:14;;;;;;;9.93;9.02;;;;;;;14.35;72.69;96888.50;10415537;28;20189;-66
2023/05/13 15:57:17;;;;;;;5.15;2.50;;;;;;;14.66;68.52;96813.81;10422457;28;20614;-67
2023/05/13 16:02:17;;;;;;;3.20;2.20;;;;;;;14.80;68.28;96817.44;10420770;28;20593;-66
2023/05/13 16:07:17;;;;;;;3.20;2.60;;;;;;;14.77;69.11;96823.09;10418318;28;20252;-66
2023/05/13 16:12:18;;;;;;;4.18;2.38;;;;;;;14.75;66.45;96778.44;10418240;28;20200;-65
2023/05/13 16:17:18;;;;;;;3.97;3.13;;;;;;;14.53;67.52;96811.75;10417710;28;20216;-65
2023/05/13 16:22:33;;;;;;;5.55;3.45;;;;;;;14.35;71.17;96853.41;10417793;28;20259;-65
2023/05/13 16:27:34;;;;;;;4.85;3.78;;;;;;;13.89;75.05;96884.00;10417412;28;20589;-65
2023/05/13 16:32:34;;;;;;;8.20;4.97;;;;;;;14.06;73.19;96854.94;10417484;28;20195;-66
2023/05/13 16:37:34;;;;;;;7.53;4.78;;;;;;;14.15;75.34;96885.50;10417079;28;20589;-66
2023/05/13 16:42:35;;;;;;;3.40;2.60;;;;;;;14.01;72.18;96841.47;10416961;28;20311;-66
2023/05/13 16:47:35;;;;;;;4.15;2.65;;;;;;;13.67;72.26;96840.03;10416631;28;20251;-66
2023/05/13 16:52:35;;;;;;;8.20;2.90;;;;;;;13.80;72.40;96835.03;10416504;28;20185;-66
2023/05/13 16:57:36;;;;;;;7.30;2.83;;;;;;;13.88;73.13;96837.59;10416469;28;20243;-67
2023/05/13 17:02:36;;;;;;;5.75;3.08;;;;;;;13.67;72.94;96835.56;10414867;28;20227;-67
2023/05/13 17:07:36;;;;;;;4.22;3.10;;;;;;;13.77;73.27;96845.06;10415873;28;20235;-66
2023/05/13 17:12:37;;;;;;;3.60;2.90;;;;;;;13.83;72.94;96836.50;10415792;28;20193;-66
2023/05/13 17:17:37;;;;;;;4.47;3.05;;;;;;;13.50;73.91;96840.09;10415671;28;20237;-65
2023/05/13 17:22:38;;;;;;;4.05;3.17;;;;;;;13.07;74.36;96847.47;10415387;28;20307;-66
2023/05/13 17:27:38;;;;;;;3.63;2.90;;;;;;;12.92;76.05;96862.31;10415305;28;20573;-66
2023/05/13 17:32:38;;;;;;;3.92;3.20;;;;;;;12.69;76.93;96867.44;10415086;28;20288;-67
2023/05/13 17:37:39;;;;;;;3.70;3.20;;;;;;;12.71;76.78;96858.41;10414970;28;20216;-66
2023/05/13 17:42:39;;;;;;;5.68;3.30;;;;;;;12.69;77.49;96859.53;10414455;28;20246;-66
2023/05/13 17:47:39;;;;;;;4.45;3.45;;;;;;;12.58;77.75;96858.88;10433703;22;20240;-66
2023/05/13 17:52:40;;;;;;;4.25;3.55;;;;;;;12.63;78.38;96863.66;10414520;28;20208;-67
2023/05/13 17:57:40;;;;;;;6.95;3.30;;;;;;;12.43;78.89;96858.72;10414103;28;20204;-66
2023/05/13 18:02:41;;;;;;;4.70;3.85;;;;;;;12.52;78.31;96856.09;10414183;28;20221;-66
2023/05/13 18:07:41;;;;;;;4.40;3.50;;;;;;;12.45;79.60;96863.81;10413897;28;20216;-66
2023/05/13 18:12:41;;;;;;;4.38;3.25;;;;;;;12.44;79.46;96870.88;10413425;28;20227;-66
2023/05/13 18:17:42;;;;;;;4.85;3.95;;;;;;;12.55;79.54;96866.28;10413385;28;20216;-66
2023/05/13 18:22:42;;;;;;;4.30;3.88;;;;;;;12.47;80.86;96878.44;10412980;28;20243;-66
2023/05/13 18:27:42;;;;;;;3.83;3.42;;;;;;;12.52;81.94;96887.66;10413357;28;20309;-66
2023/05/13 18:32:43;;;;;;;4.13;2.90;;;;;;;12.41;81.17;96875.66;10412532;28;20193;-66
2023/05/13 18:37:43;;;;;;;3.45;3.08;;;;;;;12.48;82.02;96879.25;10412863;28;20223;-66
2023/05/13 18:42:43;;;;;;;5.10;3.28;;;;;;;12.34;81.38;96875.47;10412196;28;20220;-66
2023/05/13 18:47:44;;;;;;;3.30;3.00;;;;;;;12.33;79.70;96860.72;10412238;28;20290;-66
2023/05/13 18:52:45;;;;;;;3.47;3.17;;;;;;;12.23;80.83;96868.72;10412362;28;20200;-66
2023/05/13 18:57:45;;;;;;;3.58;3.28;;;;;;;12.13;83.33;96900.41;10411702;28;20243;-66
2023/05/13 19:02:45;;;;;;;3.65;3.33;;;;;;;12.11;82.64;96894.50;10412417;28;20209;-66
2023/05/13 19:07:46;;;;;;;6.20;3.72;;;;;;;12.10;82.04;96890.22;10411504;28;20220;-66
2023/05/13 19:12:46;;;;;;;7.10;4.57;;;;;;;11.94;84.65;96912.03;10411724;28;20219;-66
2023/05/13 19:17:46;;;;;;;6.95;4.25;;;;;;;11.86;87.98;96930.34;10411474;28;20204;-66
2023/05/13 19:22:47;;;;;;;6.18;4.57;;;;;;;11.71;89.95;96927.50;10411248;28;20223;-66
2023/05/13 19:27:48;;;;;;;7.40;5.70;;;;;;;11.62;92.07;96933.69;10410674;28;20212;-66
2023/05/13 19:32:48;;;;;;;7.22;5.78;;;;;;;11.45;96.65;96939.84;10411125;28;20194;-66
2023/05/13 19:37:49;;;;;;;8.45;6.00;;;;;;;11.67;98.15;96934.06;10411199;28;20216;-66
2023/05/13 19:42:49;;;;;;;9.02;5.78;;;;;;;11.43;99.69;96932.13;10410889;28;20243;-66
2023/05/13 19:47:50;;;;;;;10.57;6.55;;;;;;;11.24;100.00;96941.88;10410756;28;20240;-66
2023/05/13 19:52:51;;;;;;;7.68;6.20;;;;;;;10.90;100.00;96936.56;10410766;28;20549;-66
2023/05/13 19:57:51;;;;;;;8.82;5.97;;;;;;;10.93;100.00;96933.63;10410740;28;20240;-66
2023/05/13 20:02:51;;;;;;;8.82;5.93;;;;;;;11.01;100.00;96931.06;10410417;28;20319;-66
2023/05/13 20:07:52;;;;;;;10.02;6.05;;;;;;;10.95;100.00;96934.31;10410562;28;20226;-66
2023/05/13 20:12:52;;;;;;;10.43;4.88;;;;;;;10.77;100.00;96928.28;10410465;28;20197;-66
2023/05/13 20:17:52;;;;;;;9.30;5.75;;;;;;;10.77;100.00;96928.28;10410250;28;20217;-66
2023/05/13 20:22:53;;;;;;;7.85;5.97;;;;;;;10.69;100.00;96923.81;10410151;28;20263;-66
2023/05/13 20:27:53;;;;;;;9.70;5.88;;;;;;;10.56;100.00;96923.38;10410116;28;20247;-66
2023/05/13 20:32:53;;;;;;;7.20;5.68;;;;;;;10.33;100.00;96924.63;10410613;28;20191;-66
2023/05/13 20:37:56;;;;;;;8.03;5.70;;;;;;;10.30;100.00;96919.66;10413767;28;20266;-67
2023/05/13 20:42:58;;;;;;;7.83;5.77;;;;;;;10.19;100.00;96930.38;10417665;28;20213;-67
2023/05/13 20:47:59;;;;;;;6.75;5.78;;;;;;;10.27;100.00;96927.81;10417067;28;20236;-67
2023/05/13 20:53:00;;;;;;;8.35;5.80;;;;;;;10.19;100.00;96930.38;10416895;28;20719;-66
2023/05/13 20:58:00;;;;;;;6.80;5.60;;;;;;;10.14;100.00;96933.44;10416787;28;20312;-66
2023/05/13 21:03:01;;;;;;;5.13;4.63;;;;;;;10.08;100.00;96930.59;10416129;28;20223;-66
2023/05/13 21:08:01;;;;;;;8.05;5.20;;;;;;;9.94;100.00;96927.50;10416235;28;20293;-66
2023/05/13 21:13:02;;;;;;;8.32;5.13;;;;;;;9.96;100.00;96922.13;10415882;28;20223;-66
2023/05/13 21:18:02;;;;;;;5.65;5.07;;;;;;;9.80;100.00;96920.13;10415882;28;20262;-67
2023/05/13 21:23:02;;;;;;;7.28;5.28;;;;;;;9.63;100.00;96925.19;10415812;28;20774;-67
2023/05/13 21:28:03;;;;;;;6.57;5.30;;;;;;;9.62;100.00;96934.00;10415376;28;20552;-66
2023/05/13 21:33:03;;;;;;;5.72;4.55;;;;;;;9.88;100.00;96935.94;10415534;28;20689;-66
2023/05/13 21:38:03;;;;;;;6.30;4.83;;;;;;;9.86;100.00;96935.25;10414955;28;20231;-66
2023/05/13 21:43:04;;;;;;;7.10;4.83;;;;;;;9.78;100.00;96935.97;10415170;28;20227;-67
2023/05/13 21:48:05;;;;;;;5.47;4.57;;;;;;;9.70;100.00;96930.66;10413882;28;20247;-66
2023/05/13 21:53:05;;;;;;;5.45;4.95;;;;;;;9.93;100.00;96933.69;10414528;28;20185;-66
2023/05/13 21:58:06;;;;;;;6.20;5.07;;;;;;;9.97;100.00;96924.59;10414569;28;20216;-66
2023/05/13 22:03:06;;;;;;;5.85;4.82;;;;;;;9.67;100.00;96927.50;10413944;28;20287;-67
2023/05/13 22:08:06;;;;;;;7.23;5.47;;;;;;;9.48;100.00;96941.47;10414264;28;20213;-66
2023/05/13 22:13:07;;;;;;;7.63;5.60;;;;;;;9.22;100.00;96931.69;10413818;28;20235;-66
2023/05/13 22:18:07;;;;;;;7.87;5.30;;;;;;;9.44;100.00;96933.94;10413549;28;20217;-67
2023/05/13 22:23:08;;;;;;;7.63;5.27;;;;;;;9.46;100.00;96929.41;10413473;28;20590;-66
2023/05/13 22:28:08;;;;;;;6.50;5.30;;;;;;;9.46;100.00;96924.16;10413101;28;20585;-67
2023/05/13 22:33:08;;;;;;;6.17;5.37;;;;;;;9.32;100.00;96926.41;10413018;28;20659;-67
2023/05/13 22:38:09;;;;;;;7.47;5.80;;;;;;;9.44;100.00;96923.47;10412748;28;20632;-67
2023/05/13 22:43:09;;;;;;;5.60;5.07;;;;;;;9.43;100.00;96919.22;10412692;28;20766;-67
2023/05/13 22:48:09;;;;;;;5.97;5.00;;;;;;;9.46;100.00;96918.09;10412241;28;20236;-67
2023/05/13 22:53:10;;;;;;;5.80;5.17;;;;;;;9.44;100.00;96909.59;10412345;28;20196;-67
2023/05/13 22:58:10;;;;;;;5.60;5.00;;;;;;;9.43;100.00;96907.94;10412144;28;20207;-66
2023/05/13 23:03:11;;;;;;;7.70;5.30;;;;;;;9.43;100.00;96902.69;10412021;28;20303;-68
2023/05/13 23:08:11;;;;;;;7.07;5.27;;;;;;;9.53;100.00;96903.47;10411984;28;20220;-67
2023/05/13 23:13:11;;;;;;;7.47;4.70;;;;;;;9.54;100.00;96886.84;10411887;28;20276;-67
2023/05/13 23:18:12;;;;;;;8.43;5.03;;;;;;;9.52;100.00;96893.97;10411443;28;20204;-67